sensor_id;sensor_type;location;lat;lon;timestamp;P1;P2;P0
55518;PMS5003;41724;51.176;-0.708;2023-02-28T00:00:50;6;5;
55518;PMS5003;41724;51.176;-0.708;2023-02-28T00:03:17;6;5;
55518;PMS5003;41724;51.176;-0.708;2023-02-28T00:05:44;4;3;
55518;PMS5003;41724;51.176;-0.708;2023-02-28T00:08:11;3;3;
55518;PMS5003;41724;51.176;-0.708;2023-02-28T00:10:39;5;5;
55518;PMS5003;41724;51.176;-0.708;2023-02-28T00:13:06;6;6;
55518;PMS5003;41724;51.176;-0.708;2023-02-28T00:15:33;5;5;
55518;PMS5003;41724;51.176;-0.708;2023-02-28T00:18:01;4;4;
55518;PMS5003;41724;51.176;-0.708;2023-02-28T00:20:28;4;4;
55518;PMS5003;41724;51.176;-0.708;2023-02-28T00:22:55;6;6;
55518;PMS5003;41724;51.176;-0.708;2023-02-28T00:25:24;4;4;
55518;PMS5003;41724;51.176;-0.708;2023-02-28T00:27:52;3;3;
55518;PMS5003;41724;51.176;-0.708;2023-02-28T00:30:19;4;4;
55518;PMS5003;41724;51.176;-0.708;2023-02-28T00:32:49;4;2;
55518;PMS5003;41724;51.176;-0.708;2023-02-28T00:35:16;4;4;
55518;PMS5003;41724;51.176;-0.708;2023-02-28T00:37:44;3;3;
55518;PMS5003;41724;51.176;-0.708;2023-02-28T00:40:11;3;3;
55518;PMS5003;41724;51.176;-0.708;2023-02-28T00:42:38;4;3;
55518;PMS5003;41724;51.176;-0.708;2023-02-28T00:45:06;4;3;
55518;PMS5003;41724;51.176;-0.708;2023-02-28T00:47:34;2;2;
55518;PMS5003;41724;51.176;-0.708;2023-02-28T00:50:01;4;4;
55518;PMS5003;41724;51.176;-0.708;2023-02-28T00:52:29;5;4;
55518;PMS5003;41724;51.176;-0.708;2023-02-28T00:54:57;5;3;
55518;PMS5003;41724;51.176;-0.708;2023-02-28T00:57:24;4;4;
55518;PMS5003;41724;51.176;-0.708;2023-02-28T00:59:51;4;4;
55518;PMS5003;41724;51.176;-0.708;2023-02-28T01:02:18;5;5;
55518;PMS5003;41724;51.176;-0.708;2023-02-28T01:04:46;4;4;
55518;PMS5003;41724;51.176;-0.708;2023-02-28T01:07:13;3;3;
55518;PMS5003;41724;51.176;-0.708;2023-02-28T01:09:40;5;4;
55518;PMS5003;41724;51.176;-0.708;2023-02-28T01:12:08;5;5;
55518;PMS5003;41724;51.176;-0.708;2023-02-28T01:14:35;5;4;
55518;PMS5003;41724;51.176;-0.708;2023-02-28T01:17:03;6;5;
55518;PMS5003;41724;51.176;-0.708;2023-02-28T01:19:30;11;10;
55518;PMS5003;41724;51.176;-0.708;2023-02-28T01:22:00;6;5;
55518;PMS5003;41724;51.176;-0.708;2023-02-28T01:24:27;5;5;
55518;PMS5003;41724;51.176;-0.708;2023-02-28T01:26:55;5;5;
55518;PMS5003;41724;51.176;-0.708;2023-02-28T01:29:22;4;4;
55518;PMS5003;41724;51.176;-0.708;2023-02-28T01:31:49;6;5;
55518;PMS5003;41724;51.176;-0.708;2023-02-28T01:34:16;8;5;
55518;PMS5003;41724;51.176;-0.708;2023-02-28T01:36:44;5;5;
55518;PMS5003;41724;51.176;-0.708;2023-02-28T01:39:11;6;5;
55518;PMS5003;41724;51.176;-0.708;2023-02-28T01:41:38;4;4;
55518;PMS5003;41724;51.176;-0.708;2023-02-28T01:44:07;5;5;
55518;PMS5003;41724;51.176;-0.708;2023-02-28T01:47:23;5;5;
55518;PMS5003;41724;51.176;-0.708;2023-02-28T01:49:55;5;5;
55518;PMS5003;41724;51.176;-0.708;2023-02-28T01:52:22;5;4;
55518;PMS5003;41724;51.176;-0.708;2023-02-28T01:54:50;3;3;
55518;PMS5003;41724;51.176;-0.708;2023-02-28T01:57:21;5;4;
55518;PMS5003;41724;51.176;-0.708;2023-02-28T01:59:53;3;3;
55518;PMS5003;41724;51.176;-0.708;2023-02-28T02:02:24;5;3;
55518;PMS5003;41724;51.176;-0.708;2023-02-28T02:04:54;8;6;
55518;PMS5003;41724;51.176;-0.708;2023-02-28T02:07:25;13;12;
55518;PMS5003;41724;51.176;-0.708;2023-02-28T02:09:59;7;5;
55518;PMS5003;41724;51.176;-0.708;2023-02-28T02:12:30;7;5;
55518;PMS5003;41724;51.176;-0.708;2023-02-28T02:15:11;3;3;
55518;PMS5003;41724;51.176;-0.708;2023-02-28T02:17:43;3;3;
55518;PMS5003;41724;51.176;-0.708;2023-02-28T02:20:22;4;3;
55518;PMS5003;41724;51.176;-0.708;2023-02-28T02:25:16;5;4;
55518;PMS5003;41724;51.176;-0.708;2023-02-28T02:27:57;8;8;
55518;PMS5003;41724;51.176;-0.708;2023-02-28T02:30:44;8;6;
55518;PMS5003;41724;51.176;-0.708;2023-02-28T02:33:29;6;6;
55518;PMS5003;41724;51.176;-0.708;2023-02-28T02:36:19;11;9;
55518;PMS5003;41724;51.176;-0.708;2023-02-28T02:38:55;8;8;
55518;PMS5003;41724;51.176;-0.708;2023-02-28T02:41:32;8;8;
55518;PMS5003;41724;51.176;-0.708;2023-02-28T02:44:04;8;6;
55518;PMS5003;41724;51.176;-0.708;2023-02-28T02:46:40;9;8;
55518;PMS5003;41724;51.176;-0.708;2023-02-28T02:49:11;9;8;
55518;PMS5003;41724;51.176;-0.708;2023-02-28T02:51:42;6;6;
55518;PMS5003;41724;51.176;-0.708;2023-02-28T02:54:13;8;8;
55518;PMS5003;41724;51.176;-0.708;2023-02-28T02:56:44;8;8;
55518;PMS5003;41724;51.176;-0.708;2023-02-28T02:59:16;8;5;
55518;PMS5003;41724;51.176;-0.708;2023-02-28T03:01:49;12;11;
55518;PMS5003;41724;51.176;-0.708;2023-02-28T03:04:20;9;8;
55518;PMS5003;41724;51.176;-0.708;2023-02-28T03:06:50;10;10;
55518;PMS5003;41724;51.176;-0.708;2023-02-28T03:09:18;10;9;
55518;PMS5003;41724;51.176;-0.708;2023-02-28T03:11:44;10;10;
55518;PMS5003;41724;51.176;-0.708;2023-02-28T03:14:17;9;8;
55518;PMS5003;41724;51.176;-0.708;2023-02-28T03:17:03;10;9;
55518;PMS5003;41724;51.176;-0.708;2023-02-28T03:19:45;8;8;
55518;PMS5003;41724;51.176;-0.708;2023-02-28T03:22:25;9;8;
55518;PMS5003;41724;51.176;-0.708;2023-02-28T03:25:11;12;8;
55518;PMS5003;41724;51.176;-0.708;2023-02-28T03:27:47;11;11;
55518;PMS5003;41724;51.176;-0.708;2023-02-28T03:30:23;10;10;
55518;PMS5003;41724;51.176;-0.708;2023-02-28T03:32:55;10;10;
55518;PMS5003;41724;51.176;-0.708;2023-02-28T03:35:31;12;10;
55518;PMS5003;41724;51.176;-0.708;2023-02-28T03:38:03;11;10;
55518;PMS5003;41724;51.176;-0.708;2023-02-28T03:40:36;11;10;
55518;PMS5003;41724;51.176;-0.708;2023-02-28T03:43:07;10;10;
55518;PMS5003;41724;51.176;-0.708;2023-02-28T03:45:39;10;10;
55518;PMS5003;41724;51.176;-0.708;2023-02-28T03:48:09;12;11;
55518;PMS5003;41724;51.176;-0.708;2023-02-28T03:50:40;10;10;
55518;PMS5003;41724;51.176;-0.708;2023-02-28T03:53:11;12;11;
55518;PMS5003;41724;51.176;-0.708;2023-02-28T03:55:42;14;12;
55518;PMS5003;41724;51.176;-0.708;2023-02-28T03:58:16;14;11;
55518;PMS5003;41724;51.176;-0.708;2023-02-28T04:00:49;14;14;
55518;PMS5003;41724;51.176;-0.708;2023-02-28T04:03:21;18;17;
55518;PMS5003;41724;51.176;-0.708;2023-02-28T04:05:50;10;9;
55518;PMS5003;41724;51.176;-0.708;2023-02-28T04:08:19;21;18;
55518;PMS5003;41724;51.176;-0.708;2023-02-28T04:10:48;13;11;
55518;PMS5003;41724;51.176;-0.708;2023-02-28T04:13:22;11;11;
55518;PMS5003;41724;51.176;-0.708;2023-02-28T04:15:50;14;12;
55518;PMS5003;41724;51.176;-0.708;2023-02-28T04:18:17;17;17;
55518;PMS5003;41724;51.176;-0.708;2023-02-28T04:20:45;14;13;
55518;PMS5003;41724;51.176;-0.708;2023-02-28T04:23:12;17;13;
55518;PMS5003;41724;51.176;-0.708;2023-02-28T04:25:39;11;11;
55518;PMS5003;41724;51.176;-0.708;2023-02-28T04:28:06;15;15;
55518;PMS5003;41724;51.176;-0.708;2023-02-28T04:30:34;14;13;
55518;PMS5003;41724;51.176;-0.708;2023-02-28T04:33:01;11;11;
55518;PMS5003;41724;51.176;-0.708;2023-02-28T04:35:28;14;10;
55518;PMS5003;41724;51.176;-0.708;2023-02-28T04:37:56;13;11;
55518;PMS5003;41724;51.176;-0.708;2023-02-28T04:40:23;14;13;
55518;PMS5003;41724;51.176;-0.708;2023-02-28T04:42:50;11;11;
55518;PMS5003;41724;51.176;-0.708;2023-02-28T04:45:18;9;9;
55518;PMS5003;41724;51.176;-0.708;2023-02-28T04:47:45;10;9;
55518;PMS5003;41724;51.176;-0.708;2023-02-28T04:50:12;10;10;
55518;PMS5003;41724;51.176;-0.708;2023-02-28T04:52:39;13;13;
55518;PMS5003;41724;51.176;-0.708;2023-02-28T04:55:07;11;11;
55518;PMS5003;41724;51.176;-0.708;2023-02-28T04:57:35;13;13;
55518;PMS5003;41724;51.176;-0.708;2023-02-28T05:00:02;54;49;
55518;PMS5003;41724;51.176;-0.708;2023-02-28T05:02:30;45;42;
55518;PMS5003;41724;51.176;-0.708;2023-02-28T05:05:00;58;52;
55518;PMS5003;41724;51.176;-0.708;2023-02-28T05:07:28;39;33;
55518;PMS5003;41724;51.176;-0.708;2023-02-28T05:09:54;30;28;
55518;PMS5003;41724;51.176;-0.708;2023-02-28T05:12:21;27;27;
55518;PMS5003;41724;51.176;-0.708;2023-02-28T05:14:49;45;40;
55518;PMS5003;41724;51.176;-0.708;2023-02-28T05:17:16;58;53;
55518;PMS5003;41724;51.176;-0.708;2023-02-28T05:19:43;55;49;
55518;PMS5003;41724;51.176;-0.708;2023-02-28T05:22:13;44;39;
55518;PMS5003;41724;51.176;-0.708;2023-02-28T05:24:41;25;24;
55518;PMS5003;41724;51.176;-0.708;2023-02-28T05:27:08;22;21;
55518;PMS5003;41724;51.176;-0.708;2023-02-28T05:29:36;20;18;
55518;PMS5003;41724;51.176;-0.708;2023-02-28T05:32:04;25;21;
55518;PMS5003;41724;51.176;-0.708;2023-02-28T05:34:31;26;26;
55518;PMS5003;41724;51.176;-0.708;2023-02-28T05:36:58;32;30;
55518;PMS5003;41724;51.176;-0.708;2023-02-28T05:39:25;28;28;
55518;PMS5003;41724;51.176;-0.708;2023-02-28T05:41:52;29;27;
55518;PMS5003;41724;51.176;-0.708;2023-02-28T05:44:20;36;34;
55518;PMS5003;41724;51.176;-0.708;2023-02-28T05:46:47;31;28;
55518;PMS5003;41724;51.176;-0.708;2023-02-28T05:49:14;27;24;
55518;PMS5003;41724;51.176;-0.708;2023-02-28T05:51:41;36;34;
55518;PMS5003;41724;51.176;-0.708;2023-02-28T05:54:08;33;28;
55518;PMS5003;41724;51.176;-0.708;2023-02-28T05:56:35;28;26;
55518;PMS5003;41724;51.176;-0.708;2023-02-28T05:59:02;25;24;
55518;PMS5003;41724;51.176;-0.708;2023-02-28T06:01:32;24;22;
55518;PMS5003;41724;51.176;-0.708;2023-02-28T06:04:01;24;22;
55518;PMS5003;41724;51.176;-0.708;2023-02-28T06:06:31;20;18;
55518;PMS5003;41724;51.176;-0.708;2023-02-28T06:08:58;19;18;
55518;PMS5003;41724;51.176;-0.708;2023-02-28T06:11:25;16;15;
55518;PMS5003;41724;51.176;-0.708;2023-02-28T06:13:53;16;15;
55518;PMS5003;41724;51.176;-0.708;2023-02-28T06:16:21;13;12;
55518;PMS5003;41724;51.176;-0.708;2023-02-28T06:18:48;13;11;
55518;PMS5003;41724;51.176;-0.708;2023-02-28T06:21:15;15;15;
55518;PMS5003;41724;51.176;-0.708;2023-02-28T06:23:42;14;13;
55518;PMS5003;41724;51.176;-0.708;2023-02-28T06:26:09;14;13;
55518;PMS5003;41724;51.176;-0.708;2023-02-28T06:28:36;16;14;
55518;PMS5003;41724;51.176;-0.708;2023-02-28T06:31:07;12;12;
55518;PMS5003;41724;51.176;-0.708;2023-02-28T06:33:36;15;14;
55518;PMS5003;41724;51.176;-0.708;2023-02-28T06:36:05;42;40;
55518;PMS5003;41724;51.176;-0.708;2023-02-28T06:38:33;29;26;
55518;PMS5003;41724;51.176;-0.708;2023-02-28T06:41:01;32;32;
55518;PMS5003;41724;51.176;-0.708;2023-02-28T06:43:29;21;21;
55518;PMS5003;41724;51.176;-0.708;2023-02-28T06:45:57;24;22;
55518;PMS5003;41724;51.176;-0.708;2023-02-28T06:48:26;13;12;
55518;PMS5003;41724;51.176;-0.708;2023-02-28T06:51:02;12;10;
55518;PMS5003;41724;51.176;-0.708;2023-02-28T06:53:31;14;13;
55518;PMS5003;41724;51.176;-0.708;2023-02-28T06:55:58;14;13;
55518;PMS5003;41724;51.176;-0.708;2023-02-28T06:58:25;12;9;
55518;PMS5003;41724;51.176;-0.708;2023-02-28T07:00:52;12;12;
55518;PMS5003;41724;51.176;-0.708;2023-02-28T07:03:19;13;9;
55518;PMS5003;41724;51.176;-0.708;2023-02-28T07:05:47;10;10;
55518;PMS5003;41724;51.176;-0.708;2023-02-28T07:08:14;13;10;
55518;PMS5003;41724;51.176;-0.708;2023-02-28T07:10:42;13;12;
55518;PMS5003;41724;51.176;-0.708;2023-02-28T07:13:09;16;15;
55518;PMS5003;41724;51.176;-0.708;2023-02-28T07:15:37;10;9;
55518;PMS5003;41724;51.176;-0.708;2023-02-28T07:18:04;13;13;
55518;PMS5003;41724;51.176;-0.708;2023-02-28T07:20:32;11;8;
55518;PMS5003;41724;51.176;-0.708;2023-02-28T07:22:59;8;8;
55518;PMS5003;41724;51.176;-0.708;2023-02-28T07:25:27;10;9;
55518;PMS5003;41724;51.176;-0.708;2023-02-28T07:27:55;8;8;
55518;PMS5003;41724;51.176;-0.708;2023-02-28T07:30:23;10;9;
55518;PMS5003;41724;51.176;-0.708;2023-02-28T07:32:50;15;11;
55518;PMS5003;41724;51.176;-0.708;2023-02-28T07:35:17;12;10;
55518;PMS5003;41724;51.176;-0.708;2023-02-28T07:37:45;62;55;
55518;PMS5003;41724;51.176;-0.708;2023-02-28T07:40:12;58;54;
55518;PMS5003;41724;51.176;-0.708;2023-02-28T07:42:41;36;34;
55518;PMS5003;41724;51.176;-0.708;2023-02-28T07:45:09;31;28;
55518;PMS5003;41724;51.176;-0.708;2023-02-28T07:47:37;65;61;
55518;PMS5003;41724;51.176;-0.708;2023-02-28T07:50:05;81;69;
55518;PMS5003;41724;51.176;-0.708;2023-02-28T07:52:33;29;28;
55518;PMS5003;41724;51.176;-0.708;2023-02-28T07:54:59;17;17;
55518;PMS5003;41724;51.176;-0.708;2023-02-28T07:57:27;17;16;
55518;PMS5003;41724;51.176;-0.708;2023-02-28T07:59:54;30;27;
55518;PMS5003;41724;51.176;-0.708;2023-02-28T08:02:21;25;25;
55518;PMS5003;41724;51.176;-0.708;2023-02-28T08:04:48;26;23;
55518;PMS5003;41724;51.176;-0.708;2023-02-28T08:07:17;22;22;
55518;PMS5003;41724;51.176;-0.708;2023-02-28T08:09:45;26;26;
55518;PMS5003;41724;51.176;-0.708;2023-02-28T08:12:12;28;28;
55518;PMS5003;41724;51.176;-0.708;2023-02-28T08:14:40;44;41;
55518;PMS5003;41724;51.176;-0.708;2023-02-28T08:17:07;35;31;
55518;PMS5003;41724;51.176;-0.708;2023-02-28T08:19:35;40;34;
55518;PMS5003;41724;51.176;-0.708;2023-02-28T08:22:03;47;42;
55518;PMS5003;41724;51.176;-0.708;2023-02-28T08:24:31;56;53;
55518;PMS5003;41724;51.176;-0.708;2023-02-28T08:27:00;62;61;
55518;PMS5003;41724;51.176;-0.708;2023-02-28T08:29:26;37;36;
55518;PMS5003;41724;51.176;-0.708;2023-02-28T08:31:53;24;19;
55518;PMS5003;41724;51.176;-0.708;2023-02-28T08:34:20;13;12;
55518;PMS5003;41724;51.176;-0.708;2023-02-28T08:36:48;13;13;
55518;PMS5003;41724;51.176;-0.708;2023-02-28T08:39:16;15;14;
55518;PMS5003;41724;51.176;-0.708;2023-02-28T08:41:43;10;10;
55518;PMS5003;41724;51.176;-0.708;2023-02-28T08:44:10;12;10;
55518;PMS5003;41724;51.176;-0.708;2023-02-28T08:46:37;10;9;
55518;PMS5003;41724;51.176;-0.708;2023-02-28T08:49:05;6;6;
55518;PMS5003;41724;51.176;-0.708;2023-02-28T08:51:32;13;12;
55518;PMS5003;41724;51.176;-0.708;2023-02-28T08:54:00;14;12;
55518;PMS5003;41724;51.176;-0.708;2023-02-28T08:56:27;7;7;
55518;PMS5003;41724;51.176;-0.708;2023-02-28T08:58:55;11;11;
55518;PMS5003;41724;51.176;-0.708;2023-02-28T09:01:23;8;7;
55518;PMS5003;41724;51.176;-0.708;2023-02-28T09:03:53;6;6;
55518;PMS5003;41724;51.176;-0.708;2023-02-28T09:06:22;6;6;
55518;PMS5003;41724;51.176;-0.708;2023-02-28T09:08:50;8;7;
55518;PMS5003;41724;51.176;-0.708;2023-02-28T09:11:17;7;7;
55518;PMS5003;41724;51.176;-0.708;2023-02-28T09:13:44;13;12;
55518;PMS5003;41724;51.176;-0.708;2023-02-28T09:16:14;8;7;
55518;PMS5003;41724;51.176;-0.708;2023-02-28T09:18:43;8;7;
55518;PMS5003;41724;51.176;-0.708;2023-02-28T09:21:10;6;6;
55518;PMS5003;41724;51.176;-0.708;2023-02-28T09:23:39;9;7;
55518;PMS5003;41724;51.176;-0.708;2023-02-28T09:26:07;12;10;
55518;PMS5003;41724;51.176;-0.708;2023-02-28T09:28:40;10;10;
55518;PMS5003;41724;51.176;-0.708;2023-02-28T09:31:10;10;9;
55518;PMS5003;41724;51.176;-0.708;2023-02-28T09:33:40;8;8;
55518;PMS5003;41724;51.176;-0.708;2023-02-28T09:36:07;9;9;
55518;PMS5003;41724;51.176;-0.708;2023-02-28T09:38:34;8;8;
55518;PMS5003;41724;51.176;-0.708;2023-02-28T09:41:03;10;8;
55518;PMS5003;41724;51.176;-0.708;2023-02-28T09:43:38;9;8;
55518;PMS5003;41724;51.176;-0.708;2023-02-28T09:46:12;7;7;
55518;PMS5003;41724;51.176;-0.708;2023-02-28T09:48:50;11;10;
55518;PMS5003;41724;51.176;-0.708;2023-02-28T09:51:27;10;8;
55518;PMS5003;41724;51.176;-0.708;2023-02-28T09:54:02;7;6;
55518;PMS5003;41724;51.176;-0.708;2023-02-28T09:56:31;7;6;
55518;PMS5003;41724;51.176;-0.708;2023-02-28T09:59:04;10;10;
55518;PMS5003;41724;51.176;-0.708;2023-02-28T10:01:41;8;8;
55518;PMS5003;41724;51.176;-0.708;2023-02-28T10:04:22;9;8;
55518;PMS5003;41724;51.176;-0.708;2023-02-28T10:07:06;7;7;
55518;PMS5003;41724;51.176;-0.708;2023-02-28T10:09:43;10;9;
55518;PMS5003;41724;51.176;-0.708;2023-02-28T10:12:13;9;8;
55518;PMS5003;41724;51.176;-0.708;2023-02-28T10:14:44;10;10;
55518;PMS5003;41724;51.176;-0.708;2023-02-28T10:17:14;9;9;
55518;PMS5003;41724;51.176;-0.708;2023-02-28T10:19:46;8;7;
55518;PMS5003;41724;51.176;-0.708;2023-02-28T10:22:23;7;7;
55518;PMS5003;41724;51.176;-0.708;2023-02-28T10:24:54;6;6;
55518;PMS5003;41724;51.176;-0.708;2023-02-28T10:27:24;6;6;
55518;PMS5003;41724;51.176;-0.708;2023-02-28T10:29:56;5;5;
55518;PMS5003;41724;51.176;-0.708;2023-02-28T10:32:25;6;6;
55518;PMS5003;41724;51.176;-0.708;2023-02-28T10:34:54;6;5;
55518;PMS5003;41724;51.176;-0.708;2023-02-28T10:37:27;6;5;
55518;PMS5003;41724;51.176;-0.708;2023-02-28T10:39:54;6;5;
55518;PMS5003;41724;51.176;-0.708;2023-02-28T10:42:23;3;3;
55518;PMS5003;41724;51.176;-0.708;2023-02-28T10:45:10;4;4;
55518;PMS5003;41724;51.176;-0.708;2023-02-28T10:47:42;4;4;
55518;PMS5003;41724;51.176;-0.708;2023-02-28T10:50:29;5;4;
55518;PMS5003;41724;51.176;-0.708;2023-02-28T10:53:24;4;4;
55518;PMS5003;41724;51.176;-0.708;2023-02-28T10:55:57;7;5;
55518;PMS5003;41724;51.176;-0.708;2023-02-28T10:58:27;3;3;
55518;PMS5003;41724;51.176;-0.708;2023-02-28T11:00:56;3;3;
55518;PMS5003;41724;51.176;-0.708;2023-02-28T11:03:28;4;3;
55518;PMS5003;41724;51.176;-0.708;2023-02-28T11:05:58;3;3;
55518;PMS5003;41724;51.176;-0.708;2023-02-28T11:08:32;4;4;
55518;PMS5003;41724;51.176;-0.708;2023-02-28T11:11:01;2;2;
55518;PMS5003;41724;51.176;-0.708;2023-02-28T11:13:32;4;4;
55518;PMS5003;41724;51.176;-0.708;2023-02-28T11:16:03;4;4;
55518;PMS5003;41724;51.176;-0.708;2023-02-28T11:18:35;3;3;
55518;PMS5003;41724;51.176;-0.708;2023-02-28T11:21:08;4;4;
55518;PMS5003;41724;51.176;-0.708;2023-02-28T11:23:41;4;4;
55518;PMS5003;41724;51.176;-0.708;2023-02-28T11:26:10;8;8;
55518;PMS5003;41724;51.176;-0.708;2023-02-28T11:28:38;4;4;
55518;PMS5003;41724;51.176;-0.708;2023-02-28T11:31:15;4;4;
55518;PMS5003;41724;51.176;-0.708;2023-02-28T11:33:44;6;5;
55518;PMS5003;41724;51.176;-0.708;2023-02-28T11:36:14;4;4;
55518;PMS5003;41724;51.176;-0.708;2023-02-28T11:38:44;4;4;
55518;PMS5003;41724;51.176;-0.708;2023-02-28T11:41:18;6;5;
55518;PMS5003;41724;51.176;-0.708;2023-02-28T11:44:01;5;4;
55518;PMS5003;41724;51.176;-0.708;2023-02-28T11:46:39;4;4;
55518;PMS5003;41724;51.176;-0.708;2023-02-28T11:49:18;5;4;
55518;PMS5003;41724;51.176;-0.708;2023-02-28T11:51:58;4;3;
55518;PMS5003;41724;51.176;-0.708;2023-02-28T11:54:31;6;6;
55518;PMS5003;41724;51.176;-0.708;2023-02-28T11:57:15;5;3;
55518;PMS5003;41724;51.176;-0.708;2023-02-28T11:59:59;3;3;
55518;PMS5003;41724;51.176;-0.708;2023-02-28T12:02:35;3;3;
55518;PMS5003;41724;51.176;-0.708;2023-02-28T12:05:21;4;4;
55518;PMS5003;41724;51.176;-0.708;2023-02-28T12:07:57;4;4;
55518;PMS5003;41724;51.176;-0.708;2023-02-28T12:10:39;3;3;
55518;PMS5003;41724;51.176;-0.708;2023-02-28T12:13:16;5;4;
55518;PMS5003;41724;51.176;-0.708;2023-02-28T12:15:53;6;6;
55518;PMS5003;41724;51.176;-0.708;2023-02-28T12:18:40;4;4;
55518;PMS5003;41724;51.176;-0.708;2023-02-28T12:21:20;6;5;
55518;PMS5003;41724;51.176;-0.708;2023-02-28T12:24:05;6;6;
55518;PMS5003;41724;51.176;-0.708;2023-02-28T12:26:44;4;4;
55518;PMS5003;41724;51.176;-0.708;2023-02-28T12:29:14;5;5;
55518;PMS5003;41724;51.176;-0.708;2023-02-28T12:31:46;7;4;
55518;PMS5003;41724;51.176;-0.708;2023-02-28T12:34:20;5;4;
55518;PMS5003;41724;51.176;-0.708;2023-02-28T12:36:53;4;4;
55518;PMS5003;41724;51.176;-0.708;2023-02-28T12:39:23;6;5;
55518;PMS5003;41724;51.176;-0.708;2023-02-28T12:41:56;6;6;
55518;PMS5003;41724;51.176;-0.708;2023-02-28T12:44:32;6;6;
55518;PMS5003;41724;51.176;-0.708;2023-02-28T12:47:04;6;6;
55518;PMS5003;41724;51.176;-0.708;2023-02-28T12:49:39;7;7;
55518;PMS5003;41724;51.176;-0.708;2023-02-28T12:52:12;4;4;
55518;PMS5003;41724;51.176;-0.708;2023-02-28T12:54:46;5;5;
55518;PMS5003;41724;51.176;-0.708;2023-02-28T12:57:19;9;8;
55518;PMS5003;41724;51.176;-0.708;2023-02-28T12:59:59;8;8;
55518;PMS5003;41724;51.176;-0.708;2023-02-28T13:03:38;6;6;
55518;PMS5003;41724;51.176;-0.708;2023-02-28T13:06:21;7;5;
55518;PMS5003;41724;51.176;-0.708;2023-02-28T13:09:01;8;7;
55518;PMS5003;41724;51.176;-0.708;2023-02-28T13:11:32;8;8;
55518;PMS5003;41724;51.176;-0.708;2023-02-28T13:14:05;6;6;
55518;PMS5003;41724;51.176;-0.708;2023-02-28T13:16:50;9;8;
55518;PMS5003;41724;51.176;-0.708;2023-02-28T13:19:22;8;6;
55518;PMS5003;41724;51.176;-0.708;2023-02-28T13:21:52;5;5;
55518;PMS5003;41724;51.176;-0.708;2023-02-28T13:24:37;7;7;
55518;PMS5003;41724;51.176;-0.708;2023-02-28T13:27:25;7;6;
55518;PMS5003;41724;51.176;-0.708;2023-02-28T13:30:02;6;6;
55518;PMS5003;41724;51.176;-0.708;2023-02-28T13:33:32;6;5;
55518;PMS5003;41724;51.176;-0.708;2023-02-28T13:36:07;5;5;
55518;PMS5003;41724;51.176;-0.708;2023-02-28T13:38:38;6;6;
55518;PMS5003;41724;51.176;-0.708;2023-02-28T13:41:40;6;6;
55518;PMS5003;41724;51.176;-0.708;2023-02-28T13:44:11;6;6;
55518;PMS5003;41724;51.176;-0.708;2023-02-28T13:47:45;5;4;
55518;PMS5003;41724;51.176;-0.708;2023-02-28T13:50:21;5;5;
55518;PMS5003;41724;51.176;-0.708;2023-02-28T13:52:59;5;5;
55518;PMS5003;41724;51.176;-0.708;2023-02-28T13:55:21;5;5;
55518;PMS5003;41724;51.176;-0.708;2023-02-28T13:58:00;7;7;
55518;PMS5003;41724;51.176;-0.708;2023-02-28T14:00:47;5;5;
55518;PMS5003;41724;51.176;-0.708;2023-02-28T14:03:32;6;6;
55518;PMS5003;41724;51.176;-0.708;2023-02-28T14:06:18;8;7;
55518;PMS5003;41724;51.176;-0.708;2023-02-28T14:08:55;6;5;
55518;PMS5003;41724;51.176;-0.708;2023-02-28T14:11:26;9;7;
55518;PMS5003;41724;51.176;-0.708;2023-02-28T14:13:56;7;6;
55518;PMS5003;41724;51.176;-0.708;2023-02-28T14:16:25;6;6;
55518;PMS5003;41724;51.176;-0.708;2023-02-28T14:18:56;8;8;
55518;PMS5003;41724;51.176;-0.708;2023-02-28T14:21:27;6;6;
55518;PMS5003;41724;51.176;-0.708;2023-02-28T14:25:08;7;6;
55518;PMS5003;41724;51.176;-0.708;2023-02-28T14:27:44;10;10;
55518;PMS5003;41724;51.176;-0.708;2023-02-28T14:30:51;7;7;
55518;PMS5003;41724;51.176;-0.708;2023-02-28T14:33:26;7;7;
55518;PMS5003;41724;51.176;-0.708;2023-02-28T14:36:13;7;7;
55518;PMS5003;41724;51.176;-0.708;2023-02-28T14:38:46;7;6;
55518;PMS5003;41724;51.176;-0.708;2023-02-28T14:41:20;10;9;
55518;PMS5003;41724;51.176;-0.708;2023-02-28T14:43:52;8;7;
55518;PMS5003;41724;51.176;-0.708;2023-02-28T14:46:21;5;5;
55518;PMS5003;41724;51.176;-0.708;2023-02-28T14:48:51;7;6;
55518;PMS5003;41724;51.176;-0.708;2023-02-28T14:51:21;5;5;
55518;PMS5003;41724;51.176;-0.708;2023-02-28T14:53:51;4;4;
55518;PMS5003;41724;51.176;-0.708;2023-02-28T14:56:27;6;6;
55518;PMS5003;41724;51.176;-0.708;2023-02-28T14:59:02;7;7;
55518;PMS5003;41724;51.176;-0.708;2023-02-28T15:01:31;5;5;
55518;PMS5003;41724;51.176;-0.708;2023-02-28T15:03:59;7;7;
55518;PMS5003;41724;51.176;-0.708;2023-02-28T15:06:28;5;5;
55518;PMS5003;41724;51.176;-0.708;2023-02-28T15:09:14;6;6;
55518;PMS5003;41724;51.176;-0.708;2023-02-28T15:11:44;7;6;
55518;PMS5003;41724;51.176;-0.708;2023-02-28T15:14:17;8;8;
55518;PMS5003;41724;51.176;-0.708;2023-02-28T15:16:48;9;9;
55518;PMS5003;41724;51.176;-0.708;2023-02-28T15:19:23;18;16;
55518;PMS5003;41724;51.176;-0.708;2023-02-28T15:21:55;17;15;
55518;PMS5003;41724;51.176;-0.708;2023-02-28T15:24:31;15;13;
55518;PMS5003;41724;51.176;-0.708;2023-02-28T15:27:04;12;10;
55518;PMS5003;41724;51.176;-0.708;2023-02-28T15:29:35;11;10;
55518;PMS5003;41724;51.176;-0.708;2023-02-28T15:32:21;9;8;
55518;PMS5003;41724;51.176;-0.708;2023-02-28T15:34:54;9;9;
55518;PMS5003;41724;51.176;-0.708;2023-02-28T15:37:26;10;8;
55518;PMS5003;41724;51.176;-0.708;2023-02-28T15:39:55;12;11;
55518;PMS5003;41724;51.176;-0.708;2023-02-28T15:42:27;9;9;
55518;PMS5003;41724;51.176;-0.708;2023-02-28T15:44:55;9;8;
55518;PMS5003;41724;51.176;-0.708;2023-02-28T15:47:24;9;9;
55518;PMS5003;41724;51.176;-0.708;2023-02-28T15:49:54;5;5;
55518;PMS5003;41724;51.176;-0.708;2023-02-28T15:52:24;7;7;
55518;PMS5003;41724;51.176;-0.708;2023-02-28T15:54:54;7;7;
55518;PMS5003;41724;51.176;-0.708;2023-02-28T15:57:22;9;7;
55518;PMS5003;41724;51.176;-0.708;2023-02-28T15:59:54;6;6;
55518;PMS5003;41724;51.176;-0.708;2023-02-28T16:02:29;7;6;
55518;PMS5003;41724;51.176;-0.708;2023-02-28T16:04:59;4;4;
55518;PMS5003;41724;51.176;-0.708;2023-02-28T16:07:40;5;5;
55518;PMS5003;41724;51.176;-0.708;2023-02-28T16:10:10;6;5;
55518;PMS5003;41724;51.176;-0.708;2023-02-28T16:12:39;3;3;
55518;PMS5003;41724;51.176;-0.708;2023-02-28T16:15:08;3;3;
55518;PMS5003;41724;51.176;-0.708;2023-02-28T16:17:48;6;5;
55518;PMS5003;41724;51.176;-0.708;2023-02-28T16:20:17;6;6;
55518;PMS5003;41724;51.176;-0.708;2023-02-28T16:22:47;4;4;
55518;PMS5003;41724;51.176;-0.708;2023-02-28T16:25:14;4;3;
55518;PMS5003;41724;51.176;-0.708;2023-02-28T16:27:43;5;5;
55518;PMS5003;41724;51.176;-0.708;2023-02-28T16:30:15;6;6;
55518;PMS5003;41724;51.176;-0.708;2023-02-28T16:32:46;5;5;
55518;PMS5003;41724;51.176;-0.708;2023-02-28T16:35:13;5;5;
55518;PMS5003;41724;51.176;-0.708;2023-02-28T16:37:40;4;4;
55518;PMS5003;41724;51.176;-0.708;2023-02-28T16:40:08;5;5;
55518;PMS5003;41724;51.176;-0.708;2023-02-28T16:42:39;6;5;
55518;PMS5003;41724;51.176;-0.708;2023-02-28T16:45:13;6;6;
55518;PMS5003;41724;51.176;-0.708;2023-02-28T16:47:42;6;5;
55518;PMS5003;41724;51.176;-0.708;2023-02-28T16:50:14;5;5;
55518;PMS5003;41724;51.176;-0.708;2023-02-28T16:52:43;5;5;
55518;PMS5003;41724;51.176;-0.708;2023-02-28T16:55:11;5;5;